Terminal Aerodrome Forecast
Issued by NWS Wilmington, OH

Home | Current Version | Previous Version | Text Only | Print | Product List | Glossary On
Versions: 1 2 3 4 5 6 7 8 9 10 11 12 13 14 15 16 17 18 19 20 21 22 23 24 25 26 27 28 29
000
FTUS41 KILN 231700
TAFCMH
TAF
KCMH 231730Z 2318/2418 07005KT P6SM BKN060
     FM240100 05004KT P6SM BKN080
     FM240800 VRB03KT 4SM BR BKN200
     FM241400 08005KT P6SM SCT040=

USA.gov is the U.S. government's official web portal to all federal, state and local government web resources and services.